sensor_id;sensor_type;location;lat;lon;timestamp;temperature;humidity
48686;DHT22;34485;51.536;3.816;2022-10-24T00:00:05;15.70;99.90
48686;DHT22;34485;51.536;3.816;2022-10-24T00:02:31;15.70;99.90
48686;DHT22;34485;51.536;3.816;2022-10-24T00:04:57;15.70;99.90
48686;DHT22;34485;51.536;3.816;2022-10-24T00:07:22;15.80;99.90
48686;DHT22;34485;51.536;3.816;2022-10-24T00:09:48;15.90;99.90
48686;DHT22;34485;51.536;3.816;2022-10-24T00:12:14;15.90;99.90
48686;DHT22;34485;51.536;3.816;2022-10-24T00:14:39;16.00;99.90
48686;DHT22;34485;51.536;3.816;2022-10-24T00:17:05;16.10;99.90
48686;DHT22;34485;51.536;3.816;2022-10-24T00:19:31;16.10;99.90
48686;DHT22;34485;51.536;3.816;2022-10-24T00:21:57;16.20;99.90
48686;DHT22;34485;51.536;3.816;2022-10-24T00:24:23;16.20;99.90
48686;DHT22;34485;51.536;3.816;2022-10-24T00:26:49;16.20;99.90
48686;DHT22;34485;51.536;3.816;2022-10-24T00:29:15;16.20;99.90
48686;DHT22;34485;51.536;3.816;2022-10-24T00:31:41;16.20;99.90
48686;DHT22;34485;51.536;3.816;2022-10-24T00:34:07;16.20;99.90
48686;DHT22;34485;51.536;3.816;2022-10-24T00:36:32;16.30;99.90
48686;DHT22;34485;51.536;3.816;2022-10-24T00:38:58;16.40;99.90
48686;DHT22;34485;51.536;3.816;2022-10-24T00:41:30;16.50;99.90
48686;DHT22;34485;51.536;3.816;2022-10-24T00:47:07;16.60;99.90
48686;DHT22;34485;51.536;3.816;2022-10-24T00:49:45;16.60;99.90
48686;DHT22;34485;51.536;3.816;2022-10-24T00:52:13;16.60;99.90
48686;DHT22;34485;51.536;3.816;2022-10-24T00:54:40;16.60;99.90
48686;DHT22;34485;51.536;3.816;2022-10-24T00:59:35;16.60;99.90
48686;DHT22;34485;51.536;3.816;2022-10-24T01:02:01;16.50;99.90
48686;DHT22;34485;51.536;3.816;2022-10-24T01:04:27;16.50;99.90
48686;DHT22;34485;51.536;3.816;2022-10-24T01:07:23;16.40;99.90
48686;DHT22;34485;51.536;3.816;2022-10-24T01:15:14;16.30;99.90
48686;DHT22;34485;51.536;3.816;2022-10-24T01:29:17;16.20;99.90
48686;DHT22;34485;51.536;3.816;2022-10-24T01:31:56;16.10;99.90
48686;DHT22;34485;51.536;3.816;2022-10-24T01:34:33;16.20;99.90
48686;DHT22;34485;51.536;3.816;2022-10-24T01:37:29;16.10;99.90
48686;DHT22;34485;51.536;3.816;2022-10-24T01:40:01;16.00;99.90
48686;DHT22;34485;51.536;3.816;2022-10-24T01:42:29;16.00;99.90
48686;DHT22;34485;51.536;3.816;2022-10-24T01:44:59;16.00;99.90
48686;DHT22;34485;51.536;3.816;2022-10-24T01:47:29;16.00;99.90
48686;DHT22;34485;51.536;3.816;2022-10-24T01:50:03;15.90;99.90
48686;DHT22;34485;51.536;3.816;2022-10-24T01:52:33;15.90;99.90
48686;DHT22;34485;51.536;3.816;2022-10-24T01:55:01;15.90;99.90
48686;DHT22;34485;51.536;3.816;2022-10-24T01:57:32;15.90;99.90
48686;DHT22;34485;51.536;3.816;2022-10-24T01:59:58;16.00;99.90
48686;DHT22;34485;51.536;3.816;2022-10-24T02:02:40;15.80;99.90
48686;DHT22;34485;51.536;3.816;2022-10-24T02:05:20;15.80;99.90
48686;DHT22;34485;51.536;3.816;2022-10-24T02:07:50;15.70;99.90
48686;DHT22;34485;51.536;3.816;2022-10-24T02:10:25;15.70;99.90
48686;DHT22;34485;51.536;3.816;2022-10-24T02:13:08;15.70;99.90
48686;DHT22;34485;51.536;3.816;2022-10-24T02:15:44;15.70;99.90
48686;DHT22;34485;51.536;3.816;2022-10-24T02:18:11;15.70;99.90
48686;DHT22;34485;51.536;3.816;2022-10-24T02:20:44;15.80;99.90
48686;DHT22;34485;51.536;3.816;2022-10-24T02:23:32;15.80;99.90
48686;DHT22;34485;51.536;3.816;2022-10-24T02:26:00;15.90;99.90
48686;DHT22;34485;51.536;3.816;2022-10-24T02:28:31;15.90;99.40
48686;DHT22;34485;51.536;3.816;2022-10-24T02:31:06;16.10;98.80
48686;DHT22;34485;51.536;3.816;2022-10-24T02:33:33;16.00;98.80
48686;DHT22;34485;51.536;3.816;2022-10-24T02:36:00;16.10;97.60
48686;DHT22;34485;51.536;3.816;2022-10-24T02:38:32;16.10;97.60
48686;DHT22;34485;51.536;3.816;2022-10-24T02:41:01;16.10;96.40
48686;DHT22;34485;51.536;3.816;2022-10-24T02:43:28;16.10;95.90
48686;DHT22;34485;51.536;3.816;2022-10-24T02:45:55;16.10;96.10
48686;DHT22;34485;51.536;3.816;2022-10-24T02:48:26;16.10;95.90
48686;DHT22;34485;51.536;3.816;2022-10-24T02:50:53;16.00;96.30
48686;DHT22;34485;51.536;3.816;2022-10-24T02:53:20;16.00;95.70
48686;DHT22;34485;51.536;3.816;2022-10-24T02:55:46;16.00;95.40
48686;DHT22;34485;51.536;3.816;2022-10-24T02:58:12;15.90;95.70
48686;DHT22;34485;51.536;3.816;2022-10-24T03:00:37;15.90;95.70
48686;DHT22;34485;51.536;3.816;2022-10-24T03:03:03;15.80;96.90
48686;DHT22;34485;51.536;3.816;2022-10-24T03:05:28;15.80;96.30
48686;DHT22;34485;51.536;3.816;2022-10-24T03:07:54;15.80;96.70
48686;DHT22;34485;51.536;3.816;2022-10-24T03:10:20;15.80;96.90
48686;DHT22;34485;51.536;3.816;2022-10-24T03:12:45;15.80;96.50
48686;DHT22;34485;51.536;3.816;2022-10-24T03:15:11;15.80;96.70
48686;DHT22;34485;51.536;3.816;2022-10-24T03:17:37;15.80;96.90
48686;DHT22;34485;51.536;3.816;2022-10-24T03:20:03;15.80;97.20
48686;DHT22;34485;51.536;3.816;2022-10-24T03:22:29;15.80;97.40
48686;DHT22;34485;51.536;3.816;2022-10-24T03:24:54;15.90;97.60
48686;DHT22;34485;51.536;3.816;2022-10-24T03:27:20;15.80;97.80
48686;DHT22;34485;51.536;3.816;2022-10-24T03:29:46;15.80;97.90
48686;DHT22;34485;51.536;3.816;2022-10-24T03:32:12;15.90;97.40
48686;DHT22;34485;51.536;3.816;2022-10-24T03:34:37;15.90;97.80
48686;DHT22;34485;51.536;3.816;2022-10-24T03:37:03;15.90;97.50
48686;DHT22;34485;51.536;3.816;2022-10-24T03:39:28;15.90;97.70
48686;DHT22;34485;51.536;3.816;2022-10-24T03:41:54;15.90;97.50
48686;DHT22;34485;51.536;3.816;2022-10-24T03:44:19;15.90;97.20
48686;DHT22;34485;51.536;3.816;2022-10-24T03:46:45;16.00;97.50
48686;DHT22;34485;51.536;3.816;2022-10-24T03:49:10;16.00;97.70
48686;DHT22;34485;51.536;3.816;2022-10-24T03:51:36;15.90;97.80
48686;DHT22;34485;51.536;3.816;2022-10-24T03:54:02;15.90;98.30
48686;DHT22;34485;51.536;3.816;2022-10-24T03:56:27;15.90;97.90
48686;DHT22;34485;51.536;3.816;2022-10-24T03:58:53;15.90;98.50
48686;DHT22;34485;51.536;3.816;2022-10-24T04:01:18;15.90;98.00
48686;DHT22;34485;51.536;3.816;2022-10-24T04:03:44;15.90;98.90
48686;DHT22;34485;51.536;3.816;2022-10-24T04:06:11;15.90;98.80
48686;DHT22;34485;51.536;3.816;2022-10-24T04:08:36;15.90;98.90
48686;DHT22;34485;51.536;3.816;2022-10-24T04:11:03;15.90;99.00
48686;DHT22;34485;51.536;3.816;2022-10-24T04:13:29;15.90;98.80
48686;DHT22;34485;51.536;3.816;2022-10-24T04:15:55;15.90;98.70
48686;DHT22;34485;51.536;3.816;2022-10-24T04:18:20;15.90;99.00
48686;DHT22;34485;51.536;3.816;2022-10-24T04:20:46;15.80;99.00
48686;DHT22;34485;51.536;3.816;2022-10-24T04:23:12;15.80;99.10
48686;DHT22;34485;51.536;3.816;2022-10-24T04:25:38;15.80;98.70
48686;DHT22;34485;51.536;3.816;2022-10-24T04:28:05;15.90;99.00
48686;DHT22;34485;51.536;3.816;2022-10-24T04:30:30;15.90;98.90
48686;DHT22;34485;51.536;3.816;2022-10-24T04:32:56;15.90;98.60
48686;DHT22;34485;51.536;3.816;2022-10-24T04:35:22;15.90;98.60
48686;DHT22;34485;51.536;3.816;2022-10-24T04:37:48;15.90;98.90
48686;DHT22;34485;51.536;3.816;2022-10-24T04:40:13;15.90;98.60
48686;DHT22;34485;51.536;3.816;2022-10-24T04:42:39;15.90;98.90
48686;DHT22;34485;51.536;3.816;2022-10-24T04:45:05;15.90;98.90
48686;DHT22;34485;51.536;3.816;2022-10-24T04:47:31;15.90;98.40
48686;DHT22;34485;51.536;3.816;2022-10-24T04:49:57;16.00;98.70
48686;DHT22;34485;51.536;3.816;2022-10-24T04:52:22;16.00;98.30
48686;DHT22;34485;51.536;3.816;2022-10-24T04:54:48;16.00;98.60
48686;DHT22;34485;51.536;3.816;2022-10-24T04:57:14;16.00;98.60
48686;DHT22;34485;51.536;3.816;2022-10-24T04:59:39;16.00;98.80
48686;DHT22;34485;51.536;3.816;2022-10-24T05:02:05;15.80;99.20
48686;DHT22;34485;51.536;3.816;2022-10-24T05:04:31;15.80;99.50
48686;DHT22;34485;51.536;3.816;2022-10-24T05:06:56;15.80;99.50
48686;DHT22;34485;51.536;3.816;2022-10-24T05:09:22;15.80;99.70
48686;DHT22;34485;51.536;3.816;2022-10-24T05:11:47;15.80;99.80
48686;DHT22;34485;51.536;3.816;2022-10-24T05:14:13;15.80;99.20
48686;DHT22;34485;51.536;3.816;2022-10-24T05:16:39;15.80;99.60
48686;DHT22;34485;51.536;3.816;2022-10-24T05:19:05;15.80;99.50
48686;DHT22;34485;51.536;3.816;2022-10-24T05:21:31;15.90;99.30
48686;DHT22;34485;51.536;3.816;2022-10-24T05:23:58;15.80;99.40
48686;DHT22;34485;51.536;3.816;2022-10-24T05:26:23;15.80;99.70
48686;DHT22;34485;51.536;3.816;2022-10-24T05:28:49;15.90;99.70
48686;DHT22;34485;51.536;3.816;2022-10-24T05:31:15;15.80;99.80
48686;DHT22;34485;51.536;3.816;2022-10-24T05:33:41;15.90;99.50
48686;DHT22;34485;51.536;3.816;2022-10-24T05:36:06;15.90;99.90
48686;DHT22;34485;51.536;3.816;2022-10-24T05:38:32;15.90;98.70
48686;DHT22;34485;51.536;3.816;2022-10-24T05:40:58;15.90;99.10
48686;DHT22;34485;51.536;3.816;2022-10-24T05:43:23;15.90;98.60
48686;DHT22;34485;51.536;3.816;2022-10-24T05:45:49;15.90;98.30
48686;DHT22;34485;51.536;3.816;2022-10-24T05:48:15;15.90;98.10
48686;DHT22;34485;51.536;3.816;2022-10-24T05:50:41;15.90;98.60
48686;DHT22;34485;51.536;3.816;2022-10-24T05:53:07;15.80;98.60
48686;DHT22;34485;51.536;3.816;2022-10-24T05:55:34;15.80;98.60
48686;DHT22;34485;51.536;3.816;2022-10-24T05:58:00;15.80;99.70
48686;DHT22;34485;51.536;3.816;2022-10-24T06:00:25;15.80;98.20
48686;DHT22;34485;51.536;3.816;2022-10-24T06:02:51;15.80;98.80
48686;DHT22;34485;51.536;3.816;2022-10-24T06:05:17;15.70;99.20
48686;DHT22;34485;51.536;3.816;2022-10-24T06:07:43;15.70;98.90
48686;DHT22;34485;51.536;3.816;2022-10-24T06:10:10;15.70;98.80
48686;DHT22;34485;51.536;3.816;2022-10-24T06:12:36;15.70;98.80
48686;DHT22;34485;51.536;3.816;2022-10-24T06:15:04;15.80;98.40
48686;DHT22;34485;51.536;3.816;2022-10-24T06:17:31;15.80;98.90
48686;DHT22;34485;51.536;3.816;2022-10-24T06:19:56;15.80;98.30
48686;DHT22;34485;51.536;3.816;2022-10-24T06:22:22;15.80;97.60
48686;DHT22;34485;51.536;3.816;2022-10-24T06:24:49;15.70;98.10
48686;DHT22;34485;51.536;3.816;2022-10-24T06:27:14;15.70;97.90
48686;DHT22;34485;51.536;3.816;2022-10-24T06:29:40;15.60;98.10
48686;DHT22;34485;51.536;3.816;2022-10-24T06:32:06;15.70;98.80
48686;DHT22;34485;51.536;3.816;2022-10-24T06:34:32;15.70;97.40
48686;DHT22;34485;51.536;3.816;2022-10-24T06:36:57;15.70;97.90
48686;DHT22;34485;51.536;3.816;2022-10-24T06:39:23;15.60;97.60
48686;DHT22;34485;51.536;3.816;2022-10-24T06:41:49;15.50;97.90
48686;DHT22;34485;51.536;3.816;2022-10-24T06:44:14;15.60;97.70
48686;DHT22;34485;51.536;3.816;2022-10-24T06:46:40;15.50;98.10
48686;DHT22;34485;51.536;3.816;2022-10-24T06:49:06;15.50;98.40
48686;DHT22;34485;51.536;3.816;2022-10-24T06:51:32;15.50;98.40
48686;DHT22;34485;51.536;3.816;2022-10-24T06:53:58;15.50;98.90
48686;DHT22;34485;51.536;3.816;2022-10-24T06:56:23;15.50;97.60
48686;DHT22;34485;51.536;3.816;2022-10-24T06:58:49;15.60;98.00
48686;DHT22;34485;51.536;3.816;2022-10-24T07:01:17;15.50;98.50
48686;DHT22;34485;51.536;3.816;2022-10-24T07:03:44;15.50;98.20
48686;DHT22;34485;51.536;3.816;2022-10-24T07:06:17;15.50;99.20
48686;DHT22;34485;51.536;3.816;2022-10-24T07:08:43;15.50;99.80
48686;DHT22;34485;51.536;3.816;2022-10-24T07:11:09;15.40;98.80
48686;DHT22;34485;51.536;3.816;2022-10-24T07:13:35;15.50;98.50
48686;DHT22;34485;51.536;3.816;2022-10-24T07:16:01;15.50;98.30
48686;DHT22;34485;51.536;3.816;2022-10-24T07:18:26;15.60;98.30
48686;DHT22;34485;51.536;3.816;2022-10-24T07:20:52;15.70;98.30
48686;DHT22;34485;51.536;3.816;2022-10-24T07:23:18;15.70;98.40
48686;DHT22;34485;51.536;3.816;2022-10-24T07:25:44;15.70;98.20
48686;DHT22;34485;51.536;3.816;2022-10-24T07:28:10;15.60;98.20
48686;DHT22;34485;51.536;3.816;2022-10-24T07:30:37;15.60;98.90
48686;DHT22;34485;51.536;3.816;2022-10-24T07:33:04;15.70;98.20
48686;DHT22;34485;51.536;3.816;2022-10-24T07:35:30;15.80;98.00
48686;DHT22;34485;51.536;3.816;2022-10-24T07:37:55;15.90;97.80
48686;DHT22;34485;51.536;3.816;2022-10-24T07:40:21;15.90;98.00
48686;DHT22;34485;51.536;3.816;2022-10-24T07:42:47;15.90;98.40
48686;DHT22;34485;51.536;3.816;2022-10-24T07:45:13;15.90;99.00
48686;DHT22;34485;51.536;3.816;2022-10-24T07:47:39;15.70;99.90
48686;DHT22;34485;51.536;3.816;2022-10-24T07:50:05;15.40;99.90
48686;DHT22;34485;51.536;3.816;2022-10-24T07:52:31;15.20;99.90
48686;DHT22;34485;51.536;3.816;2022-10-24T07:54:57;15.10;99.90
48686;DHT22;34485;51.536;3.816;2022-10-24T07:57:23;15.00;99.90
48686;DHT22;34485;51.536;3.816;2022-10-24T07:59:49;14.90;99.90
48686;DHT22;34485;51.536;3.816;2022-10-24T08:02:15;14.80;99.90
48686;DHT22;34485;51.536;3.816;2022-10-24T08:04:42;14.70;99.90
48686;DHT22;34485;51.536;3.816;2022-10-24T08:07:10;14.60;99.90
48686;DHT22;34485;51.536;3.816;2022-10-24T08:09:41;14.60;99.90
48686;DHT22;34485;51.536;3.816;2022-10-24T08:12:07;14.50;99.90
48686;DHT22;34485;51.536;3.816;2022-10-24T08:14:33;14.50;99.90
48686;DHT22;34485;51.536;3.816;2022-10-24T08:16:59;14.40;99.90
48686;DHT22;34485;51.536;3.816;2022-10-24T08:19:24;14.30;99.90
48686;DHT22;34485;51.536;3.816;2022-10-24T08:21:50;14.30;99.90
48686;DHT22;34485;51.536;3.816;2022-10-24T08:24:17;14.30;99.90
48686;DHT22;34485;51.536;3.816;2022-10-24T08:26:43;14.30;99.90
48686;DHT22;34485;51.536;3.816;2022-10-24T08:29:08;14.30;99.90
48686;DHT22;34485;51.536;3.816;2022-10-24T08:31:39;14.30;99.90
48686;DHT22;34485;51.536;3.816;2022-10-24T08:34:05;14.30;99.90
48686;DHT22;34485;51.536;3.816;2022-10-24T08:36:33;14.30;99.90
48686;DHT22;34485;51.536;3.816;2022-10-24T08:39:00;14.30;99.90
48686;DHT22;34485;51.536;3.816;2022-10-24T08:44:23;14.30;99.90
48686;DHT22;34485;51.536;3.816;2022-10-24T08:46:57;14.30;99.90
48686;DHT22;34485;51.536;3.816;2022-10-24T08:49:54;14.40;99.90
48686;DHT22;34485;51.536;3.816;2022-10-24T08:55:24;14.40;99.90
48686;DHT22;34485;51.536;3.816;2022-10-24T08:57:54;14.40;99.90
48686;DHT22;34485;51.536;3.816;2022-10-24T09:00:24;14.40;99.90
48686;DHT22;34485;51.536;3.816;2022-10-24T09:03:12;14.40;99.90
48686;DHT22;34485;51.536;3.816;2022-10-24T09:05:42;14.50;99.90
48686;DHT22;34485;51.536;3.816;2022-10-24T09:08:26;14.70;99.90
48686;DHT22;34485;51.536;3.816;2022-10-24T09:11:03;14.80;99.90
48686;DHT22;34485;51.536;3.816;2022-10-24T09:13:30;15.00;99.90
48686;DHT22;34485;51.536;3.816;2022-10-24T09:15:56;15.20;99.90
48686;DHT22;34485;51.536;3.816;2022-10-24T09:18:39;15.20;99.90
48686;DHT22;34485;51.536;3.816;2022-10-24T09:21:07;15.10;99.90
48686;DHT22;34485;51.536;3.816;2022-10-24T09:23:36;15.10;99.90
48686;DHT22;34485;51.536;3.816;2022-10-24T09:26:04;14.90;99.90
48686;DHT22;34485;51.536;3.816;2022-10-24T09:28:33;14.90;99.90
48686;DHT22;34485;51.536;3.816;2022-10-24T09:31:15;14.80;99.90
48686;DHT22;34485;51.536;3.816;2022-10-24T09:33:43;14.70;99.90
48686;DHT22;34485;51.536;3.816;2022-10-24T09:36:11;14.60;99.90
48686;DHT22;34485;51.536;3.816;2022-10-24T09:38:40;14.70;99.90
48686;DHT22;34485;51.536;3.816;2022-10-24T09:41:16;14.60;99.90
48686;DHT22;34485;51.536;3.816;2022-10-24T09:46:15;14.60;99.90
48686;DHT22;34485;51.536;3.816;2022-10-24T09:48:58;14.50;99.90
48686;DHT22;34485;51.536;3.816;2022-10-24T09:51:34;14.40;99.90
48686;DHT22;34485;51.536;3.816;2022-10-24T09:56:39;14.30;99.90
48686;DHT22;34485;51.536;3.816;2022-10-24T09:59:37;14.40;99.90
48686;DHT22;34485;51.536;3.816;2022-10-24T10:05:18;14.90;99.90
48686;DHT22;34485;51.536;3.816;2022-10-24T10:07:46;15.30;99.90
48686;DHT22;34485;51.536;3.816;2022-10-24T10:10:34;15.40;99.90
48686;DHT22;34485;51.536;3.816;2022-10-24T10:15:50;15.40;99.90
48686;DHT22;34485;51.536;3.816;2022-10-24T10:21:06;15.30;99.90
48686;DHT22;34485;51.536;3.816;2022-10-24T10:23:47;15.20;99.90
48686;DHT22;34485;51.536;3.816;2022-10-24T10:26:29;15.10;99.90
48686;DHT22;34485;51.536;3.816;2022-10-24T10:29:21;15.00;99.90
48686;DHT22;34485;51.536;3.816;2022-10-24T10:31:49;15.00;99.90
48686;DHT22;34485;51.536;3.816;2022-10-24T10:37:27;15.10;99.90
48686;DHT22;34485;51.536;3.816;2022-10-24T10:42:55;15.20;99.90
48686;DHT22;34485;51.536;3.816;2022-10-24T10:48:30;15.20;99.90
48686;DHT22;34485;51.536;3.816;2022-10-24T10:59:34;15.60;99.90
48686;DHT22;34485;51.536;3.816;2022-10-24T11:08:17;16.00;99.90
48686;DHT22;34485;51.536;3.816;2022-10-24T11:10:52;16.20;99.90
48686;DHT22;34485;51.536;3.816;2022-10-24T11:14:30;16.20;99.90
48686;DHT22;34485;51.536;3.816;2022-10-24T11:16:27;16.20;99.90
48686;DHT22;34485;51.536;3.816;2022-10-24T11:18:59;16.20;99.90
48686;DHT22;34485;51.536;3.816;2022-10-24T11:21:28;16.10;99.90
48686;DHT22;34485;51.536;3.816;2022-10-24T11:24:01;16.20;99.90
48686;DHT22;34485;51.536;3.816;2022-10-24T11:26:34;16.10;99.90
48686;DHT22;34485;51.536;3.816;2022-10-24T11:29:35;16.00;99.90
48686;DHT22;34485;51.536;3.816;2022-10-24T11:32:30;15.90;99.90
48686;DHT22;34485;51.536;3.816;2022-10-24T11:37:37;15.60;99.90
48686;DHT22;34485;51.536;3.816;2022-10-24T11:40:14;15.70;99.90
48686;DHT22;34485;51.536;3.816;2022-10-24T11:45:48;15.60;99.90
48686;DHT22;34485;51.536;3.816;2022-10-24T11:48:24;15.50;99.90
48686;DHT22;34485;51.536;3.816;2022-10-24T11:50:53;15.50;99.90
48686;DHT22;34485;51.536;3.816;2022-10-24T11:56:01;15.50;99.90
48686;DHT22;34485;51.536;3.816;2022-10-24T11:58:31;15.50;99.90
48686;DHT22;34485;51.536;3.816;2022-10-24T12:01:30;15.60;99.90
48686;DHT22;34485;51.536;3.816;2022-10-24T12:20:55;16.40;99.90
48686;DHT22;34485;51.536;3.816;2022-10-24T12:23:24;16.40;99.90
48686;DHT22;34485;51.536;3.816;2022-10-24T12:28:39;16.40;99.90
48686;DHT22;34485;51.536;3.816;2022-10-24T12:31:17;16.40;99.90
48686;DHT22;34485;51.536;3.816;2022-10-24T12:33:45;16.50;99.90
48686;DHT22;34485;51.536;3.816;2022-10-24T12:36:12;16.40;99.90
48686;DHT22;34485;51.536;3.816;2022-10-24T12:41:06;16.40;99.90
48686;DHT22;34485;51.536;3.816;2022-10-24T12:46:52;16.50;99.90
48686;DHT22;34485;51.536;3.816;2022-10-24T12:49:25;16.50;99.90
48686;DHT22;34485;51.536;3.816;2022-10-24T12:51:52;16.40;99.90
48686;DHT22;34485;51.536;3.816;2022-10-24T12:59:28;16.10;99.90
48686;DHT22;34485;51.536;3.816;2022-10-24T13:18:58;16.20;99.90
48686;DHT22;34485;51.536;3.816;2022-10-24T13:21:32;16.20;99.90
48686;DHT22;34485;51.536;3.816;2022-10-24T13:26:43;16.10;99.90
48686;DHT22;34485;51.536;3.816;2022-10-24T13:39:52;15.90;99.90
48686;DHT22;34485;51.536;3.816;2022-10-24T13:42:25;15.80;99.90
48686;DHT22;34485;51.536;3.816;2022-10-24T13:44:55;15.70;99.90
48686;DHT22;34485;51.536;3.816;2022-10-24T13:47:35;15.70;99.90
48686;DHT22;34485;51.536;3.816;2022-10-24T13:50:15;15.60;99.90
48686;DHT22;34485;51.536;3.816;2022-10-24T13:55:43;15.50;99.90
48686;DHT22;34485;51.536;3.816;2022-10-24T13:58:23;15.60;99.90
48686;DHT22;34485;51.536;3.816;2022-10-24T14:01:02;15.70;99.90
48686;DHT22;34485;51.536;3.816;2022-10-24T14:03:30;15.80;99.90
48686;DHT22;34485;51.536;3.816;2022-10-24T14:06:02;15.80;99.90
48686;DHT22;34485;51.536;3.816;2022-10-24T14:08:36;15.90;99.90
48686;DHT22;34485;51.536;3.816;2022-10-24T14:11:05;16.00;99.90
48686;DHT22;34485;51.536;3.816;2022-10-24T14:13:37;16.00;99.90
48686;DHT22;34485;51.536;3.816;2022-10-24T14:16:05;16.10;99.90
48686;DHT22;34485;51.536;3.816;2022-10-24T14:18:32;16.10;99.90
48686;DHT22;34485;51.536;3.816;2022-10-24T14:21:00;16.20;99.90
48686;DHT22;34485;51.536;3.816;2022-10-24T14:23:35;16.30;99.90
48686;DHT22;34485;51.536;3.816;2022-10-24T14:26:14;16.30;99.90
48686;DHT22;34485;51.536;3.816;2022-10-24T14:28:47;16.20;99.90
48686;DHT22;34485;51.536;3.816;2022-10-24T14:31:24;16.20;99.90
48686;DHT22;34485;51.536;3.816;2022-10-24T14:33:52;16.20;99.90
48686;DHT22;34485;51.536;3.816;2022-10-24T14:36:20;16.20;99.90
48686;DHT22;34485;51.536;3.816;2022-10-24T14:38:47;16.20;99.90
48686;DHT22;34485;51.536;3.816;2022-10-24T14:41:16;16.20;99.90
48686;DHT22;34485;51.536;3.816;2022-10-24T14:43:43;16.20;99.90
48686;DHT22;34485;51.536;3.816;2022-10-24T14:48:41;16.20;99.90
48686;DHT22;34485;51.536;3.816;2022-10-24T14:51:14;16.20;99.90
48686;DHT22;34485;51.536;3.816;2022-10-24T14:53:44;16.10;99.90
48686;DHT22;34485;51.536;3.816;2022-10-24T14:56:45;16.10;99.90
48686;DHT22;34485;51.536;3.816;2022-10-24T14:59:26;16.10;99.90
48686;DHT22;34485;51.536;3.816;2022-10-24T15:01:58;16.10;99.90
48686;DHT22;34485;51.536;3.816;2022-10-24T15:04:30;16.10;99.90
48686;DHT22;34485;51.536;3.816;2022-10-24T15:06:56;16.10;99.90
48686;DHT22;34485;51.536;3.816;2022-10-24T15:09:22;16.00;99.90
48686;DHT22;34485;51.536;3.816;2022-10-24T15:11:58;15.90;99.90
48686;DHT22;34485;51.536;3.816;2022-10-24T15:14:38;15.90;99.90
48686;DHT22;34485;51.536;3.816;2022-10-24T15:17:31;15.80;99.90
48686;DHT22;34485;51.536;3.816;2022-10-24T15:20:01;15.80;99.90
48686;DHT22;34485;51.536;3.816;2022-10-24T15:22:30;15.80;99.90
48686;DHT22;34485;51.536;3.816;2022-10-24T15:24:59;15.70;99.90
48686;DHT22;34485;51.536;3.816;2022-10-24T15:27:29;15.70;99.90
48686;DHT22;34485;51.536;3.816;2022-10-24T15:29:55;15.60;99.90
48686;DHT22;34485;51.536;3.816;2022-10-24T15:32:20;15.60;99.90
48686;DHT22;34485;51.536;3.816;2022-10-24T15:34:46;15.60;99.90
48686;DHT22;34485;51.536;3.816;2022-10-24T15:37:18;15.50;99.90
48686;DHT22;34485;51.536;3.816;2022-10-24T15:39:44;15.40;99.90
48686;DHT22;34485;51.536;3.816;2022-10-24T15:42:10;15.30;99.90
48686;DHT22;34485;51.536;3.816;2022-10-24T15:44:36;15.30;99.90
48686;DHT22;34485;51.536;3.816;2022-10-24T15:47:02;15.30;99.90
48686;DHT22;34485;51.536;3.816;2022-10-24T15:49:27;15.30;99.90
48686;DHT22;34485;51.536;3.816;2022-10-24T15:51:54;15.30;99.90
48686;DHT22;34485;51.536;3.816;2022-10-24T15:54:21;15.30;99.90
48686;DHT22;34485;51.536;3.816;2022-10-24T15:57:12;15.20;99.90
48686;DHT22;34485;51.536;3.816;2022-10-24T15:59:38;15.30;99.90
48686;DHT22;34485;51.536;3.816;2022-10-24T16:02:12;15.20;99.90
48686;DHT22;34485;51.536;3.816;2022-10-24T16:04:38;15.20;99.90
48686;DHT22;34485;51.536;3.816;2022-10-24T16:07:04;15.20;99.90
48686;DHT22;34485;51.536;3.816;2022-10-24T16:09:30;15.20;99.90
48686;DHT22;34485;51.536;3.816;2022-10-24T16:11:56;15.20;99.90
48686;DHT22;34485;51.536;3.816;2022-10-24T16:14:22;15.30;99.90
48686;DHT22;34485;51.536;3.816;2022-10-24T16:16:50;15.30;99.90
48686;DHT22;34485;51.536;3.816;2022-10-24T16:19:16;15.30;99.90
48686;DHT22;34485;51.536;3.816;2022-10-24T16:21:42;15.30;99.90
48686;DHT22;34485;51.536;3.816;2022-10-24T16:24:09;15.20;99.90
48686;DHT22;34485;51.536;3.816;2022-10-24T16:26:35;15.10;99.90
48686;DHT22;34485;51.536;3.816;2022-10-24T16:29:02;15.00;99.90
48686;DHT22;34485;51.536;3.816;2022-10-24T16:31:27;14.90;99.90
48686;DHT22;34485;51.536;3.816;2022-10-24T16:33:53;14.80;99.90
48686;DHT22;34485;51.536;3.816;2022-10-24T16:36:18;14.80;99.90
48686;DHT22;34485;51.536;3.816;2022-10-24T16:38:45;14.70;99.90
48686;DHT22;34485;51.536;3.816;2022-10-24T16:41:19;14.60;99.90
48686;DHT22;34485;51.536;3.816;2022-10-24T16:43:46;14.60;99.90
48686;DHT22;34485;51.536;3.816;2022-10-24T16:46:17;14.50;99.90
48686;DHT22;34485;51.536;3.816;2022-10-24T16:48:43;14.50;99.90
48686;DHT22;34485;51.536;3.816;2022-10-24T16:51:14;14.40;99.90
48686;DHT22;34485;51.536;3.816;2022-10-24T16:53:40;14.30;99.90
48686;DHT22;34485;51.536;3.816;2022-10-24T16:56:08;14.30;99.90
48686;DHT22;34485;51.536;3.816;2022-10-24T16:58:34;14.30;99.90
48686;DHT22;34485;51.536;3.816;2022-10-24T17:01:01;14.30;99.90
48686;DHT22;34485;51.536;3.816;2022-10-24T17:03:27;14.30;99.90
48686;DHT22;34485;51.536;3.816;2022-10-24T17:05:53;14.30;99.90
48686;DHT22;34485;51.536;3.816;2022-10-24T17:08:18;14.40;99.90
48686;DHT22;34485;51.536;3.816;2022-10-24T17:10:44;14.40;99.90
48686;DHT22;34485;51.536;3.816;2022-10-24T17:13:10;14.50;99.90
48686;DHT22;34485;51.536;3.816;2022-10-24T17:15:35;14.50;99.90
48686;DHT22;34485;51.536;3.816;2022-10-24T17:18:01;14.50;99.90
48686;DHT22;34485;51.536;3.816;2022-10-24T17:20:26;14.50;99.90
48686;DHT22;34485;51.536;3.816;2022-10-24T17:22:52;14.60;99.90
48686;DHT22;34485;51.536;3.816;2022-10-24T17:25:24;14.60;99.90
48686;DHT22;34485;51.536;3.816;2022-10-24T17:27:50;14.60;99.90
48686;DHT22;34485;51.536;3.816;2022-10-24T17:30:20;14.60;99.90
48686;DHT22;34485;51.536;3.816;2022-10-24T17:32:46;14.50;99.90
48686;DHT22;34485;51.536;3.816;2022-10-24T17:35:14;14.50;99.90
48686;DHT22;34485;51.536;3.816;2022-10-24T17:40:42;14.50;99.90
48686;DHT22;34485;51.536;3.816;2022-10-24T17:43:19;14.40;99.90
48686;DHT22;34485;51.536;3.816;2022-10-24T17:45:45;14.40;99.90
48686;DHT22;34485;51.536;3.816;2022-10-24T17:48:11;14.30;99.90
48686;DHT22;34485;51.536;3.816;2022-10-24T17:50:37;14.30;99.90
48686;DHT22;34485;51.536;3.816;2022-10-24T17:53:02;14.30;99.90
48686;DHT22;34485;51.536;3.816;2022-10-24T17:55:28;14.30;99.90
48686;DHT22;34485;51.536;3.816;2022-10-24T17:57:54;14.30;99.90
48686;DHT22;34485;51.536;3.816;2022-10-24T18:00:19;14.30;99.90
48686;DHT22;34485;51.536;3.816;2022-10-24T18:02:46;14.30;99.90
48686;DHT22;34485;51.536;3.816;2022-10-24T18:05:13;14.30;99.90